Queen Victoria — ZCEF3 — position and weather

sailwx.info

Track history (hours):
 
Tides and Currents Weather Stations Pressure Air Temp Water Temp Dewpoint Dewpoint Depression Visibility Wind Speed Wind Dir Waves Ship Positions

Queen Victoria

Last reported at 2020-Apr-06 15:27 UTC. Time now 2020-Apr-06 17:01 UTC.
Position N 50°54' W 001°25'.

Length 294 m; draft 8 m.

Type: Ship. MMSI: 310624000.

Date/timePositionNaut miles runAvg speedWind from/ knotsBaromVisibWave heightAir tempDewpointWater temp
2020-Apr-06 15:27N 50°54' W 001°25'0 0.0
2020-Apr-06 13:57N 50°54' W 001°25'0 0.0
2020-Apr-06 11:57N 50°54' W 001°25'0 0.0
2020-Apr-06 09:24N 50°54' W 001°25'0 0.0
2020-Apr-06 06:57N 50°54' W 001°25'0 0.0
2020-Apr-06 06:00N 50°54' W 001°25'0 0.0
2020-Apr-06 04:57N 50°54' W 001°25'0 0.0
2020-Apr-06 04:27N 50°54' W 001°25'0 0.0
2020-Apr-06 03:21N 50°54' W 001°25'0 0.0
2020-Apr-06 02:57N 50°54' W 001°25'0 0.0
2020-Apr-06 02:27N 50°54' W 001°25'0 0.0
2020-Apr-06 00:45N 50°54' W 001°25'0 0.0
2020-Apr-05 19:54N 50°54' W 001°25'0 0.0
2020-Apr-05 18:30N 50°54' W 001°25'0 0.0
2020-Apr-05 15:51N 50°54' W 001°25'0 0.0
2020-Apr-05 15:00N 50°54' W 001°25'0 0.0
2020-Apr-05 14:30N 50°54' W 001°25'0 0.0
2020-Apr-05 14:00N 50°54' W 001°25'0 0.0
2020-Apr-05 13:30N 50°54' W 001°25'0 0.0
2020-Apr-05 13:00N 50°54' W 001°25'0 0.0
2020-Apr-05 10:57N 50°54' W 001°25'16 5.4
2020-Apr-05 08:00N 50°44' W 001°05'612.5
2020-Apr-05 07:31N 50°40' W 000°58'713.5
2020-Apr-05 07:00N 50°33' W 000°60'713.2
2020-Apr-05 06:31N 50°27' W 001°02'6513.1
2020-Apr-05 01:30N 50°13' W 002°42'2412.0
2020-Apr-04 23:30N 50°04' W 003°17'1711.5
2020-Apr-04 22:00N 49°56' W 003°41'611.2
2020-Apr-04 21:30N 49°54' W 003°49'1811.8
2020-Apr-04 20:00N 49°50' W 004°15'611.9
2020-Apr-04 19:30N 49°48' W 004°24'3212.6
2020-Apr-04 17:00N 49°39' W 005°11'1813.7
2020-Apr-04 15:41N 49°34' W 005°38'42 2.8
2020-Apr-04 00:53N 49°40' W 004°34'3213.6
2020-Apr-03 22:31N 49°49' W 003°47'714.1
2020-Apr-03 22:01N 49°51' W 003°36'714.3
2020-Apr-03 21:31N 49°54' W 003°26'1414.4
2020-Apr-03 20:31N 49°58' W 003°04'1414.0
2020-Apr-03 19:30N 50°02' W 002°43'3912.3
2020-Apr-03 16:20N 50°12' W 001°45'511.3
2020-Apr-03 15:54N 50°14' W 001°37'3110.6
2020-Apr-03 13:00N 50°33' W 000°60'19 9.6
2020-Apr-03 11:00N 50°48' W 001°18'7 7.4
2020-Apr-03 10:00N 50°54' W 001°25'0 0.0
2020-Apr-03 08:00N 50°54' W 001°25'0 0.0
2020-Apr-03 07:18N 50°54' W 001°25'0 0.0
2020-Apr-03 06:00N 50°54' W 001°25'0 0.0
2020-Apr-03 05:30N 50°54' W 001°25'0 0.0
2020-Apr-03 04:54N 50°54' W 001°25'0 0.0
2020-Apr-03 04:00N 50°54' W 001°25'0 0.0
2020-Apr-03 03:30N 50°54' W 001°25'0 0.0
2020-Apr-03 02:30N 50°54' W 001°25'0 0.0
2020-Apr-02 21:24N 50°54' W 001°25'0 0.0
2020-Apr-02 20:54N 50°54' W 001°25'0 0.0
2020-Apr-02 19:21N 50°54' W 001°25'0 0.0
2020-Apr-02 18:57N 50°54' W 001°25'0 0.0
2020-Apr-02 18:15N 50°54' W 001°25'0 0.0
2020-Apr-02 15:30N 50°54' W 001°25'0 0.0
2020-Apr-02 13:30N 50°54' W 001°25'0 0.0
2020-Apr-02 12:01N 50°54' W 001°25'0 0.0
2020-Apr-02 11:00N 50°54' W 001°25'0 0.0
2020-Apr-02 10:09N 50°54' W 001°25'0 0.0
2020-Apr-02 09:30N 50°54' W 001°25'0 0.0
2020-Apr-02 07:54N 50°54' W 001°25'0 0.0
2020-Apr-02 07:24N 50°54' W 001°25'0 0.0
2020-Apr-02 05:12N 50°54' W 001°25'0 0.0
2020-Apr-02 02:30N 50°54' W 001°25'0 0.0
2020-Apr-02 02:00N 50°54' W 001°25'0 0.0
2020-Apr-01 22:45N 50°54' W 001°25'0 0.0
2020-Apr-01 22:31N 50°54' W 001°25'0 0.0
2020-Apr-01 21:30N 50°54' W 001°25'0 0.0
2020-Apr-01 21:00N 50°54' W 001°25'0 0.0
2020-Apr-01 18:30N 50°54' W 001°25'0 0.0
2020-Apr-01 17:48N 50°54' W 001°25'0 0.0
2020-Apr-01 16:51N 50°54' W 001°25'0 0.0
2020-Apr-01 16:28N 50°54' W 001°25'0 0.0
2020-Apr-01 10:12N 50°54' W 001°25'0 0.0
2020-Apr-01 08:01N 50°54' W 001°25'0 0.0
2020-Apr-01 07:30N 50°54' W 001°25'0 0.0
2020-Mar-31 21:55N 50°54' W 001°25'0 0.0
2020-Mar-31 20:49N 50°54' W 001°25'0 0.0
2020-Mar-31 20:24N 50°54' W 001°25'0 0.0
2020-Mar-31 18:00N 50°54' W 001°25'0 0.0
2020-Mar-31 16:30N 50°54' W 001°25'0 0.0
2020-Mar-31 15:57N 50°54' W 001°25'0 0.0
2020-Mar-31 11:24N 50°54' W 001°25'0 0.0
2020-Mar-31 10:57N 50°54' W 001°25'0 0.0
2020-Mar-31 09:55N 50°54' W 001°25'0 0.0
2020-Mar-31 09:30N 50°54' W 001°25'0 0.0
2020-Mar-31 08:30N 50°54' W 001°25'0 0.0
2020-Mar-31 07:30N 50°54' W 001°25'0 0.0
2020-Mar-31 06:30N 50°54' W 001°25'0 0.0
2020-Mar-31 05:00N 50°54' W 001°25'0 0.0
2020-Mar-31 04:30N 50°54' W 001°25'0 0.0
2020-Mar-31 03:30N 50°54' W 001°25'0 0.0
2020-Mar-31 00:58N 50°54' W 001°25'0 0.0
2020-Mar-30 23:15N 50°54' W 001°25'0 0.0
2020-Mar-30 21:30N 50°54' W 001°25'0 0.0
2020-Mar-30 20:51N 50°54' W 001°25'0 0.0
2020-Mar-30 17:24N 50°54' W 001°25'0 0.0
2020-Mar-30 16:24N 50°54' W 001°25'0 0.0
2020-Mar-30 14:30N 50°54' W 001°25'0 0.0
2020-Mar-30 14:00N 50°54' W 001°25'0 0.0
2020-Mar-30 12:00N 50°54' W 001°25'10 6.9
2020-Mar-30 10:31N 50°46' W 001°14'14 7.1
2020-Mar-30 08:31N 50°37' W 000°58'1 1.2
2020-Mar-30 08:00N 50°37' W 000°59'25 9.2
2020-Mar-30 05:17N 50°25' W 001°33'8 9.2
2020-Mar-30 04:22N 50°22' W 001°46'23 9.4
2020-Mar-30 01:56N 50°15' W 002°20'3610.4
2020-Mar-29 22:31N 50°06' W 003°14'1010.1
2020-Mar-29 21:31N 50°01' W 003°27'7 7.3
2020-Mar-29 20:31N 49°53' W 003°28'1110.7
2020-Mar-29 19:30N 49°56' W 003°12'611.2
2020-Mar-29 19:01N 49°58' W 003°04'1212.2
2020-Mar-29 18:00N 50°02' W 002°46'713.2
2020-Mar-29 17:31N 50°03' W 002°36'1514.1
2020-Mar-29 16:25N 50°07' W 002°13'5212.6
2020-Mar-29 12:19N 50°32' W 001°01'1012.2
2020-Mar-29 11:30N 50°41' W 000°58'20 8.0
2020-Mar-29 08:59N 50°53' W 001°24'0 0.0
2020-Mar-29 03:29N 50°53' W 001°24'0 0.0
2020-Mar-29 02:29N 50°53' W 001°24'0 0.0
2020-Mar-28 23:59N 50°53' W 001°24'0 0.0
2020-Mar-28 23:26N 50°53' W 001°24'0 0.0
2020-Mar-28 20:59N 50°53' W 001°24'0 0.0
2020-Mar-28 19:23N 50°53' W 001°24'0 0.0
2020-Mar-28 15:29N 50°53' W 001°24'0 0.0
2020-Mar-28 12:29N 50°53' W 001°24'0 0.0
2020-Mar-28 11:59N 50°53' W 001°24'0 0.0
2020-Mar-28 11:29N 50°53' W 001°24'0 0.0
2020-Mar-28 08:29N 50°53' W 001°24'0 0.0
2020-Mar-28 06:29N 50°53' W 001°24'0 0.0
2020-Mar-28 05:50N 50°53' W 001°24'0 0.0
2020-Mar-28 02:59N 50°53' W 001°24'0 0.0
2020-Mar-28 02:29N 50°53' W 001°24'0 0.0
2020-Mar-28 01:59N 50°53' W 001°24'0 0.0
2020-Mar-28 00:59N 50°53' W 001°24'0 0.0
2020-Mar-27 22:29N 50°53' W 001°24'0 0.0
2020-Mar-27 21:29N 50°53' W 001°24'0 0.0
2020-Mar-27 16:59N 50°53' W 001°24'0 0.0
2020-Mar-27 16:29N 50°53' W 001°24'0 0.0
2020-Mar-27 15:59N 50°53' W 001°24'  
Track history (hours):
 
Tides and Currents Weather Stations Pressure Air Temp Water Temp Dewpoint Dewpoint Depression Visibility Wind Speed Wind Dir Waves Ship Positions

Queen Victoria

Last reported at 2020-Apr-06 15:27 UTC. Time now 2020-Apr-06 17:01 UTC.
Position N 50°54' W 001°25'.

Length 294 m; draft 8 m.

Type: Ship. MMSI: 310624000.

Date/timePositionNaut miles runAvg speedWind from/ knotsBaromVisibWave heightAir tempDewpointWater temp
2020-Apr-06 15:27N 50°54' W 001°25'0 0.0
2020-Apr-06 13:57N 50°54' W 001°25'0 0.0
2020-Apr-06 11:57N 50°54' W 001°25'0 0.0
2020-Apr-06 09:24N 50°54' W 001°25'0 0.0
2020-Apr-06 06:57N 50°54' W 001°25'0 0.0
2020-Apr-06 06:00N 50°54' W 001°25'0 0.0
2020-Apr-06 04:57N 50°54' W 001°25'0 0.0
2020-Apr-06 04:27N 50°54' W 001°25'0 0.0
2020-Apr-06 03:21N 50°54' W 001°25'0 0.0
2020-Apr-06 02:57N 50°54' W 001°25'0 0.0
2020-Apr-06 02:27N 50°54' W 001°25'0 0.0
2020-Apr-06 00:45N 50°54' W 001°25'0 0.0
2020-Apr-05 19:54N 50°54' W 001°25'0 0.0
2020-Apr-05 18:30N 50°54' W 001°25'0 0.0
2020-Apr-05 15:51N 50°54' W 001°25'0 0.0
2020-Apr-05 15:00N 50°54' W 001°25'0 0.0
2020-Apr-05 14:30N 50°54' W 001°25'0 0.0
2020-Apr-05 14:00N 50°54' W 001°25'0 0.0
2020-Apr-05 13:30N 50°54' W 001°25'0 0.0
2020-Apr-05 13:00N 50°54' W 001°25'0 0.0
2020-Apr-05 10:57N 50°54' W 001°25'16 5.4
2020-Apr-05 08:00N 50°44' W 001°05'612.5
2020-Apr-05 07:31N 50°40' W 000°58'713.5
2020-Apr-05 07:00N 50°33' W 000°60'713.2
2020-Apr-05 06:31N 50°27' W 001°02'6513.1
2020-Apr-05 01:30N 50°13' W 002°42'2412.0
2020-Apr-04 23:30N 50°04' W 003°17'1711.5
2020-Apr-04 22:00N 49°56' W 003°41'611.2
2020-Apr-04 21:30N 49°54' W 003°49'1811.8
2020-Apr-04 20:00N 49°50' W 004°15'611.9
2020-Apr-04 19:30N 49°48' W 004°24'3212.6
2020-Apr-04 17:00N 49°39' W 005°11'1813.7
2020-Apr-04 15:41N 49°34' W 005°38'42 2.8
2020-Apr-04 00:53N 49°40' W 004°34'3213.6
2020-Apr-03 22:31N 49°49' W 003°47'714.1
2020-Apr-03 22:01N 49°51' W 003°36'714.3
2020-Apr-03 21:31N 49°54' W 003°26'1414.4
2020-Apr-03 20:31N 49°58' W 003°04'1414.0
2020-Apr-03 19:30N 50°02' W 002°43'3912.3
2020-Apr-03 16:20N 50°12' W 001°45'511.3
2020-Apr-03 15:54N 50°14' W 001°37'3110.6
2020-Apr-03 13:00N 50°33' W 000°60'19 9.6
2020-Apr-03 11:00N 50°48' W 001°18'7 7.4
2020-Apr-03 10:00N 50°54' W 001°25'0 0.0
2020-Apr-03 08:00N 50°54' W 001°25'0 0.0
2020-Apr-03 07:18N 50°54' W 001°25'0 0.0
2020-Apr-03 06:00N 50°54' W 001°25'0 0.0
2020-Apr-03 05:30N 50°54' W 001°25'0 0.0
2020-Apr-03 04:54N 50°54' W 001°25'0 0.0
2020-Apr-03 04:00N 50°54' W 001°25'0 0.0
2020-Apr-03 03:30N 50°54' W 001°25'0 0.0
2020-Apr-03 02:30N 50°54' W 001°25'0 0.0
2020-Apr-02 21:24N 50°54' W 001°25'0 0.0
2020-Apr-02 20:54N 50°54' W 001°25'0 0.0
2020-Apr-02 19:21N 50°54' W 001°25'0 0.0
2020-Apr-02 18:57N 50°54' W 001°25'0 0.0
2020-Apr-02 18:15N 50°54' W 001°25'0 0.0
2020-Apr-02 15:30N 50°54' W 001°25'0 0.0
2020-Apr-02 13:30N 50°54' W 001°25'0 0.0
2020-Apr-02 12:01N 50°54' W 001°25'0 0.0
2020-Apr-02 11:00N 50°54' W 001°25'0 0.0
2020-Apr-02 10:09N 50°54' W 001°25'0 0.0
2020-Apr-02 09:30N 50°54' W 001°25'0 0.0
2020-Apr-02 07:54N 50°54' W 001°25'0 0.0
2020-Apr-02 07:24N 50°54' W 001°25'0 0.0
2020-Apr-02 05:12N 50°54' W 001°25'0 0.0
2020-Apr-02 02:30N 50°54' W 001°25'0 0.0
2020-Apr-02 02:00N 50°54' W 001°25'0 0.0
2020-Apr-01 22:45N 50°54' W 001°25'0 0.0
2020-Apr-01 22:31N 50°54' W 001°25'0 0.0
2020-Apr-01 21:30N 50°54' W 001°25'0 0.0
2020-Apr-01 21:00N 50°54' W 001°25'0 0.0
2020-Apr-01 18:30N 50°54' W 001°25'0 0.0
2020-Apr-01 17:48N 50°54' W 001°25'0 0.0
2020-Apr-01 16:51N 50°54' W 001°25'0 0.0
2020-Apr-01 16:28N 50°54' W 001°25'0 0.0
2020-Apr-01 10:12N 50°54' W 001°25'0 0.0
2020-Apr-01 08:01N 50°54' W 001°25'0 0.0
2020-Apr-01 07:30N 50°54' W 001°25'0 0.0
2020-Mar-31 21:55N 50°54' W 001°25'0 0.0
2020-Mar-31 20:49N 50°54' W 001°25'0 0.0
2020-Mar-31 20:24N 50°54' W 001°25'0 0.0
2020-Mar-31 18:00N 50°54' W 001°25'0 0.0
2020-Mar-31 16:30N 50°54' W 001°25'0 0.0
2020-Mar-31 15:57N 50°54' W 001°25'0 0.0
2020-Mar-31 11:24N 50°54' W 001°25'0 0.0
2020-Mar-31 10:57N 50°54' W 001°25'0 0.0
2020-Mar-31 09:55N 50°54' W 001°25'0 0.0
2020-Mar-31 09:30N 50°54' W 001°25'0 0.0
2020-Mar-31 08:30N 50°54' W 001°25'0 0.0
2020-Mar-31 07:30N 50°54' W 001°25'0 0.0
2020-Mar-31 06:30N 50°54' W 001°25'0 0.0
2020-Mar-31 05:00N 50°54' W 001°25'0 0.0
2020-Mar-31 04:30N 50°54' W 001°25'0 0.0
2020-Mar-31 03:30N 50°54' W 001°25'0 0.0
2020-Mar-31 00:58N 50°54' W 001°25'0 0.0
2020-Mar-30 23:15N 50°54' W 001°25'0 0.0
2020-Mar-30 21:30N 50°54' W 001°25'0 0.0
2020-Mar-30 20:51N 50°54' W 001°25'0 0.0
2020-Mar-30 17:24N 50°54' W 001°25'0 0.0
2020-Mar-30 16:24N 50°54' W 001°25'0 0.0
2020-Mar-30 14:30N 50°54' W 001°25'0 0.0
2020-Mar-30 14:00N 50°54' W 001°25'0 0.0
2020-Mar-30 12:00N 50°54' W 001°25'10 6.9
2020-Mar-30 10:31N 50°46' W 001°14'14 7.1
2020-Mar-30 08:31N 50°37' W 000°58'1 1.2
2020-Mar-30 08:00N 50°37' W 000°59'25 9.2
2020-Mar-30 05:17N 50°25' W 001°33'8 9.2
2020-Mar-30 04:22N 50°22' W 001°46'23 9.4
2020-Mar-30 01:56N 50°15' W 002°20'3610.4
2020-Mar-29 22:31N 50°06' W 003°14'1010.1
2020-Mar-29 21:31N 50°01' W 003°27'7 7.3
2020-Mar-29 20:31N 49°53' W 003°28'1110.7
2020-Mar-29 19:30N 49°56' W 003°12'611.2
2020-Mar-29 19:01N 49°58' W 003°04'1212.2
2020-Mar-29 18:00N 50°02' W 002°46'713.2
2020-Mar-29 17:31N 50°03' W 002°36'1514.1
2020-Mar-29 16:25N 50°07' W 002°13'5212.6
2020-Mar-29 12:19N 50°32' W 001°01'1012.2
2020-Mar-29 11:30N 50°41' W 000°58'20 8.0
2020-Mar-29 08:59N 50°53' W 001°24'0 0.0
2020-Mar-29 03:29N 50°53' W 001°24'0 0.0
2020-Mar-29 02:29N 50°53' W 001°24'0 0.0
2020-Mar-28 23:59N 50°53' W 001°24'0 0.0
2020-Mar-28 23:26N 50°53' W 001°24'0 0.0
2020-Mar-28 20:59N 50°53' W 001°24'0 0.0
2020-Mar-28 19:23N 50°53' W 001°24'0 0.0
2020-Mar-28 15:29N 50°53' W 001°24'0 0.0
2020-Mar-28 12:29N 50°53' W 001°24'0 0.0
2020-Mar-28 11:59N 50°53' W 001°24'0 0.0
2020-Mar-28 11:29N 50°53' W 001°24'0 0.0
2020-Mar-28 08:29N 50°53' W 001°24'0 0.0
2020-Mar-28 06:29N 50°53' W 001°24'0 0.0
2020-Mar-28 05:50N 50°53' W 001°24'0 0.0
2020-Mar-28 02:59N 50°53' W 001°24'0 0.0
2020-Mar-28 02:29N 50°53' W 001°24'0 0.0
2020-Mar-28 01:59N 50°53' W 001°24'0 0.0
2020-Mar-28 00:59N 50°53' W 001°24'0 0.0
2020-Mar-27 22:29N 50°53' W 001°24'0 0.0
2020-Mar-27 21:29N 50°53' W 001°24'0 0.0
2020-Mar-27 16:59N 50°53' W 001°24'0 0.0
2020-Mar-27 16:29N 50°53' W 001°24'0 0.0
2020-Mar-27 15:59N 50°53' W 001°24'  

Dump ship's entire track history